Time;durP1;ratioP1;P1;durP2;ratioP2;P2;SDS_P1;SDS_P2;PMS_P1;PMS_P2;Temp;Humidity;BMP_temperature;BMP_pressure;BME280_temperature;BME280_humidity;BME280_pressure;Samples;Min_cycle;Max_cycle;Signal;HPM_P1;HPM_P2
2024/01/01 00:01:50;;;;;;;12.73;7.50;;;;;8.80;97513.00;;;;5031813;28;20041;-63
2024/01/01 00:04:16;;;;;;;11.10;6.35;;;;;8.80;97502.00;;;;5030991;28;20124;-67
2024/01/01 00:06:43;;;;;;;17.23;5.85;;;;;8.80;97503.00;;;;5031644;28;20128;-65
2024/01/01 00:09:10;;;;;;;12.30;5.45;;;;;8.80;97501.00;;;;5031638;28;20509;-63
2024/01/01 00:11:37;;;;;;;13.70;7.18;;;;;8.80;97510.00;;;;5031404;28;20499;-64
2024/01/01 00:14:06;;;;;;;14.25;6.00;;;;;8.90;97499.00;;;;5031062;28;20124;-65
2024/01/01 00:16:33;;;;;;;8.15;4.43;;;;;8.80;97500.00;;;;5030288;28;20485;-65
2024/01/01 00:19:00;;;;;;;10.18;5.13;;;;;8.80;97502.00;;;;5031146;28;20091;-63
2024/01/01 00:21:28;;;;;;;10.60;4.40;;;;;8.80;97496.00;;;;5031360;28;20445;-62
2024/01/01 00:23:54;;;;;;;11.48;4.68;;;;;8.80;97495.00;;;;5030747;28;20049;-62
2024/01/01 00:26:21;;;;;;;8.00;3.55;;;;;8.70;97480.00;;;;5031454;28;20038;-62
2024/01/01 00:28:55;;;;;;;11.55;3.33;;;;;8.70;97494.00;;;;5031538;28;20128;-61
2024/01/01 00:31:22;;;;;;;9.43;3.60;;;;;8.70;97487.00;;;;5032815;28;20213;-63
2024/01/01 00:33:49;;;;;;;9.45;3.38;;;;;8.70;97487.00;;;;5034671;28;20037;-63
2024/01/01 00:36:15;;;;;;;7.70;3.22;;;;;8.70;97482.00;;;;5034941;28;20149;-62
2024/01/01 00:38:42;;;;;;;9.50;3.28;;;;;8.70;97495.00;;;;5033429;28;20117;-61
2024/01/01 00:41:14;;;;;;;10.30;3.17;;;;;8.70;97491.00;;;;5034917;28;20474;-61
2024/01/01 00:43:43;;;;;;;9.93;3.58;;;;;8.70;97498.00;;;;5034220;28;20092;-61
2024/01/01 00:46:10;;;;;;;9.50;4.00;;;;;8.70;97499.00;;;;5033490;28;20041;-61
2024/01/01 00:48:37;;;;;;;7.85;3.00;;;;;8.60;97494.00;;;;5034548;28;20037;-61
2024/01/01 00:51:04;;;;;;;11.00;3.40;;;;;8.70;97489.00;;;;5034624;28;20059;-62
2024/01/01 00:53:31;;;;;;;8.15;3.15;;;;;8.70;97489.00;;;;5032994;28;20049;-61
2024/01/01 00:55:58;;;;;;;10.25;3.28;;;;;8.70;97479.00;;;;5033261;28;20045;-63
2024/01/01 00:58:24;;;;;;;8.10;2.67;;;;;8.70;97477.00;;;;5034431;28;20068;-61
2024/01/01 01:00:51;;;;;;;10.05;3.20;;;;;8.60;97495.00;;;;5034619;28;20319;-62
2024/01/01 01:03:18;;;;;;;8.55;2.90;;;;;8.60;97495.00;;;;5033185;28;20037;-63
2024/01/01 01:05:44;;;;;;;9.63;2.63;;;;;8.60;97497.00;;;;5032504;28;20046;-62
2024/01/01 01:08:11;;;;;;;7.93;2.63;;;;;8.60;97495.00;;;;5033024;28;20049;-61
2024/01/01 01:10:38;;;;;;;9.35;2.60;;;;;8.60;97498.00;;;;5034264;28;20042;-62
2024/01/01 01:13:05;;;;;;;9.85;3.47;;;;;8.70;97505.00;;;;5034162;28;20069;-62
2024/01/01 01:15:32;;;;;;;9.30;2.50;;;;;8.60;97500.00;;;;5033820;28;20455;-62
2024/01/01 01:17:58;;;;;;;12.48;1.98;;;;;8.60;97509.00;;;;5033980;28;20092;-63
2024/01/01 01:20:25;;;;;;;3.92;1.80;;;;;8.60;97502.00;;;;5032935;28;20122;-63
2024/01/01 01:22:52;;;;;;;8.15;2.35;;;;;8.60;97517.00;;;;5034414;28;20037;-65
2024/01/01 01:25:21;;;;;;;8.07;2.50;;;;;8.50;97526.00;;;;5032066;28;20049;-61
2024/01/01 01:27:47;;;;;;;8.63;1.80;;;;;8.50;97524.00;;;;5033883;28;20128;-61
2024/01/01 01:30:14;;;;;;;8.32;1.90;;;;;8.50;97524.00;;;;5033930;28;20116;-64
2024/01/01 01:32:41;;;;;;;8.35;1.85;;;;;8.50;97521.00;;;;5033785;28;20111;-61
2024/01/01 01:35:08;;;;;;;6.63;2.03;;;;;8.50;97533.00;;;;5031906;28;20068;-61
2024/01/01 01:37:35;;;;;;;6.57;1.42;;;;;8.50;97524.00;;;;5033818;28;20045;-62
2024/01/01 01:40:03;;;;;;;8.35;1.77;;;;;8.50;97534.00;;;;5033700;28;20037;-62
2024/01/01 01:42:29;;;;;;;8.40;2.10;;;;;8.50;97537.00;;;;5032546;28;20124;-62
2024/01/01 01:44:56;;;;;;;6.25;1.92;;;;;8.50;97537.00;;;;5031780;28;20140;-62
2024/01/01 01:47:23;;;;;;;8.80;2.05;;;;;8.50;97530.00;;;;5031944;28;20403;-65
2024/01/01 01:49:51;;;;;;;4.13;1.58;;;;;8.40;97536.00;;;;5032339;28;20046;-61
2024/01/01 01:52:20;;;;;;;10.93;2.65;;;;;8.40;97542.00;;;;5032169;28;20046;-61
2024/01/01 01:54:49;;;;;;;10.57;2.20;;;;;8.40;97542.00;;;;5032779;28;20069;-62
2024/01/01 01:57:16;;;;;;;11.57;2.25;;;;;8.50;97537.00;;;;5033112;28;20495;-62
2024/01/01 01:59:43;;;;;;;5.75;1.83;;;;;8.50;97536.00;;;;5032029;28;20042;-61
2024/01/01 02:02:11;;;;;;;7.95;1.77;;;;;8.40;97533.00;;;;5032021;28;20073;-61
2024/01/01 02:04:37;;;;;;;8.60;2.28;;;;;8.40;97528.00;;;;5032888;28;20051;-62
2024/01/01 02:07:05;;;;;;;6.57;2.42;;;;;8.40;97532.00;;;;5032100;28;20053;-62
2024/01/01 02:09:31;;;;;;;11.48;2.40;;;;;8.50;97530.00;;;;5033282;28;20494;-63
2024/01/01 02:11:59;;;;;;;11.43;2.22;;;;;8.50;97535.00;;;;5033092;28;20043;-61
2024/01/01 02:14:26;;;;;;;8.40;1.75;;;;;8.50;97529.00;;;;5030903;28;20195;-62
2024/01/01 02:16:52;;;;;;;7.10;1.92;;;;;8.40;97528.00;;;;5032852;28;20045;-62
2024/01/01 02:19:21;;;;;;;5.10;1.67;;;;;8.40;97526.00;;;;5032807;28;20045;-61
2024/01/01 02:21:50;;;;;;;10.20;2.30;;;;;8.40;97532.00;;;;5031690;28;20050;-62
2024/01/01 02:24:17;;;;;;;10.70;2.20;;;;;8.30;97529.00;;;;5030893;28;20405;-61
2024/01/01 02:26:45;;;;;;;9.32;2.45;;;;;8.30;97531.00;;;;5032823;28;20117;-63
2024/01/01 02:29:12;;;;;;;7.38;1.70;;;;;8.30;97524.00;;;;5032656;28;20068;-61
2024/01/01 02:31:39;;;;;;;9.75;2.75;;;;;8.20;97528.00;;;;5015136;28;20056;-61
2024/01/01 02:34:06;;;;;;;8.05;1.65;;;;;8.20;97524.00;;;;5032110;28;20045;-61
2024/01/01 02:36:37;;;;;;;7.13;1.70;;;;;8.10;97534.00;;;;5032694;28;20045;-62
2024/01/01 02:39:05;;;;;;;4.97;1.70;;;;;8.10;97533.00;;;;5031172;28;20552;-61
2024/01/01 02:41:33;;;;;;;8.57;1.88;;;;;8.10;97533.00;;;;5031184;28;20068;-61
2024/01/01 02:44:00;;;;;;;11.30;2.03;;;;;8.20;97539.00;;;;5031796;28;20052;-62
2024/01/01 02:46:26;;;;;;;6.93;1.60;;;;;8.20;97539.00;;;;5031163;28;20041;-64
2024/01/01 02:48:53;;;;;;;7.63;2.63;;;;;8.20;97534.00;;;;5030964;28;20518;-64
2024/01/01 02:51:20;;;;;;;7.32;2.95;;;;;8.20;97541.00;;;;5032584;28;20064;-64
2024/01/01 02:53:46;;;;;;;6.43;1.70;;;;;8.30;97541.00;;;;5031540;28;20304;-64
2024/01/01 02:56:21;;;;;;;10.07;2.15;;;;;8.20;97536.00;;;;5032146;28;20047;-64
2024/01/01 02:58:48;;;;;;;7.10;1.55;;;;;8.20;97548.00;;;;5032391;28;20064;-64
2024/01/01 03:01:14;;;;;;;9.55;2.10;;;;;8.20;97540.00;;;;5031490;28;20438;-65
2024/01/01 03:03:41;;;;;;;10.63;2.28;;;;;8.20;97551.00;;;;5031867;28;20063;-64
2024/01/01 03:06:08;;;;;;;12.20;2.13;;;;;8.20;97551.00;;;;5032460;28;20045;-64
2024/01/01 03:08:37;;;;;;;4.50;1.55;;;;;8.10;97547.00;;;;5032112;28;20045;-64
2024/01/01 03:11:07;;;;;;;5.63;1.42;;;;;8.10;97560.00;;;;5032214;28;20041;-64
2024/01/01 03:13:34;;;;;;;10.05;2.28;;;;;8.10;97563.00;;;;5030514;28;20046;-64
2024/01/01 03:16:01;;;;;;;9.45;3.15;;;;;8.10;97541.00;;;;5031122;28;20088;-64
2024/01/01 03:18:27;;;;;;;4.97;1.83;;;;;8.10;97546.00;;;;5032351;28;20045;-63
2024/01/01 03:20:55;;;;;;;9.60;2.10;;;;;8.10;97541.00;;;;5032454;28;20417;-64
2024/01/01 03:23:21;;;;;;;11.50;2.38;;;;;8.10;97554.00;;;;5032164;28;20132;-64
2024/01/01 03:25:48;;;;;;;11.50;2.33;;;;;8.10;97549.00;;;;5030961;28;20065;-63
2024/01/01 03:28:15;;;;;;;7.10;2.03;;;;;8.10;97542.00;;;;5014942;28;20053;-64
2024/01/01 03:30:42;;;;;;;7.20;2.10;;;;;8.10;97544.00;;;;5032211;28;20041;-64
2024/01/01 03:33:09;;;;;;;9.98;2.10;;;;;8.10;97534.00;;;;5030570;28;20056;-63
2024/01/01 03:35:36;;;;;;;5.93;1.50;;;;;8.10;97539.00;;;;5030098;28;20049;-64
2024/01/01 03:38:03;;;;;;;8.70;2.33;;;;;8.10;97549.00;;;;5031607;28;20046;-64
2024/01/01 03:40:30;;;;;;;7.38;1.70;;;;;8.20;97565.00;;;;5031756;28;20128;-63
2024/01/01 03:42:57;;;;;;;10.02;2.25;;;;;8.20;97554.00;;;;5030644;28;20152;-63
2024/01/01 03:45:24;;;;;;;9.38;2.13;;;;;8.20;97560.00;;;;5031197;28;20063;-63
2024/01/01 03:47:52;;;;;;;9.98;1.80;;;;;8.10;97544.00;;;;5030527;28;20103;-63
2024/01/01 03:50:19;;;;;;;7.60;2.08;;;;;8.10;97545.00;;;;5031518;28;20048;-63
2024/01/01 03:52:47;;;;;;;9.05;2.50;;;;;8.10;97541.00;;;;5030492;28;20053;-64
2024/01/01 03:55:15;;;;;;;10.10;2.17;;;;;8.00;97566.00;;;;5029857;28;20077;-64
2024/01/01 03:57:42;;;;;;;3.88;1.10;;;;;7.90;97544.00;;;;5031631;28;20041;-64
2024/01/01 04:00:11;;;;;;;7.47;1.70;;;;;7.90;97555.00;;;;5031741;28;20033;-63
2024/01/01 04:02:40;;;;;;;6.93;1.60;;;;;7.80;97554.00;;;;5030490;28;20399;-63
2024/01/01 04:05:08;;;;;;;7.60;1.60;;;;;7.80;97550.00;;;;5032338;28;20558;-62
2024/01/01 04:07:35;;;;;;;3.63;1.58;;;;;7.80;97547.00;;;;5034261;28;20052;-64
2024/01/01 04:10:04;;;;;;;2.88;1.25;;;;;7.90;97560.00;;;;5035369;28;20494;-64
2024/01/01 04:12:30;;;;;;;5.40;1.52;;;;;7.80;97565.00;;;;5034058;28;20569;-64
2024/01/01 04:14:57;;;;;;;7.00;1.90;;;;;7.70;97580.00;;;;5017077;28;20514;-64
2024/01/01 04:17:24;;;;;;;6.82;1.75;;;;;7.60;97569.00;;;;5035244;28;20553;-63
2024/01/01 04:19:50;;;;;;;5.57;1.52;;;;;7.50;97555.00;;;;5017470;28;20056;-64
2024/01/01 04:22:18;;;;;;;7.55;1.60;;;;;7.50;97565.00;;;;5035081;28;20274;-64
2024/01/01 04:24:46;;;;;;;7.38;1.67;;;;;7.50;97561.00;;;;5034519;28;20042;-64
2024/01/01 04:27:12;;;;;;;5.43;1.73;;;;;7.50;97563.00;;;;5035010;28;20073;-64
2024/01/01 04:29:39;;;;;;;4.90;1.63;;;;;7.60;97567.00;;;;5035139;28;20041;-64
2024/01/01 04:32:06;;;;;;;7.30;2.03;;;;;7.60;97568.00;;;;5017441;28;20132;-64
2024/01/01 04:34:32;;;;;;;8.25;1.90;;;;;7.60;97574.00;;;;5037876;28;20049;-63
2024/01/01 04:36:59;;;;;;;8.68;2.15;;;;;7.60;97575.00;;;;5038114;28;20041;-64
2024/01/01 04:39:25;;;;;;;8.10;2.30;;;;;7.60;97571.00;;;;5036188;28;20049;-64
2024/01/01 04:41:52;;;;;;;6.88;2.05;;;;;7.60;97565.00;;;;5034790;28;20069;-63
2024/01/01 04:44:19;;;;;;;9.88;2.13;;;;;7.60;97576.00;;;;5034087;28;20061;-64
2024/01/01 04:46:46;;;;;;;9.40;1.90;;;;;7.60;97571.00;;;;5033351;28;20071;-64
2024/01/01 04:49:13;;;;;;;14.00;2.45;;;;;7.70;97572.00;;;;5034670;28;20120;-64
2024/01/01 04:51:39;;;;;;;8.95;2.28;;;;;7.60;97565.00;;;;5034802;28;20053;-63
2024/01/01 04:54:06;;;;;;;11.20;2.72;;;;;7.60;97575.00;;;;5034081;28;20055;-64
2024/01/01 04:56:32;;;;;;;10.65;2.15;;;;;7.60;97571.00;;;;5034594;28;20107;-63
2024/01/01 04:58:59;;;;;;;12.07;2.72;;;;;7.60;97576.00;;;;5034238;28;20528;-63
2024/01/01 05:01:27;;;;;;;10.30;2.45;;;;;7.70;97576.00;;;;5034396;28;20054;-65
2024/01/01 05:03:53;;;;;;;11.05;2.38;;;;;7.70;97578.00;;;;5034183;28;20045;-65
2024/01/01 05:06:20;;;;;;;13.77;2.53;;;;;7.80;97583.00;;;;5034462;28;20121;-65
2024/01/01 05:08:47;;;;;;;11.15;2.97;;;;;7.80;97585.00;;;;5034481;28;20128;-64
2024/01/01 05:11:14;;;;;;;15.45;3.05;;;;;7.80;97589.00;;;;5034366;28;20073;-64
2024/01/01 05:13:41;;;;;;;9.95;2.30;;;;;7.70;97581.00;;;;5033683;28;20046;-65
2024/01/01 05:16:10;;;;;;;16.42;2.80;;;;;7.70;97584.00;;;;5034019;28;20045;-64
2024/01/01 05:18:37;;;;;;;15.07;3.10;;;;;7.70;97579.00;;;;5034177;28;20033;-64
2024/01/01 05:21:05;;;;;;;12.27;2.28;;;;;7.70;97580.00;;;;5034185;28;20049;-65
2024/01/01 05:23:31;;;;;;;11.98;2.70;;;;;7.70;97571.00;;;;5033699;28;20579;-64
2024/01/01 05:25:58;;;;;;;9.20;2.47;;;;;7.70;97575.00;;;;5034008;28;20128;-65
2024/01/01 05:28:24;;;;;;;11.15;2.35;;;;;7.70;97566.00;;;;5033050;28;20053;-65
2024/01/01 05:30:51;;;;;;;8.70;2.13;;;;;7.60;97568.00;;;;5032828;28;20053;-63
2024/01/01 05:33:18;;;;;;;16.05;2.42;;;;;7.60;97587.00;;;;5034083;28;20043;-61
2024/01/01 05:35:44;;;;;;;12.80;2.95;;;;;7.50;97583.00;;;;5033539;28;20048;-63
2024/01/01 05:38:11;;;;;;;11.52;2.53;;;;;7.60;97594.00;;;;5033813;28;20041;-65
2024/01/01 05:40:38;;;;;;;10.52;2.50;;;;;7.60;97579.00;;;;5032645;28;20074;-63
2024/01/01 05:43:05;;;;;;;8.65;2.47;;;;;7.60;97588.00;;;;5033701;28;20061;-63
2024/01/01 05:45:32;;;;;;;13.32;2.50;;;;;7.60;97583.00;;;;5032050;28;20118;-62
2024/01/01 05:47:59;;;;;;;8.45;2.25;;;;;7.60;97595.00;;;;5033676;28;20041;-63
2024/01/01 05:50:27;;;;;;;7.00;2.28;;;;;7.60;97590.00;;;;5033769;28;20037;-64
2024/01/01 05:52:54;;;;;;;12.38;2.78;;;;;7.60;97589.00;;;;5033703;28;20067;-64
2024/01/01 05:55:20;;;;;;;11.30;2.50;;;;;7.60;97580.00;;;;5032861;28;20053;-62
2024/01/01 05:57:47;;;;;;;10.98;2.35;;;;;7.50;97591.00;;;;5033386;28;20077;-64
2024/01/01 06:00:14;;;;;;;8.65;1.70;;;;;7.50;97604.00;;;;5032169;28;20065;-64
2024/01/01 06:02:41;;;;;;;12.88;3.13;;;;;7.50;97603.00;;;;5033333;28;20057;-64
2024/01/01 06:05:08;;;;;;;12.63;2.30;;;;;7.40;97595.00;;;;5032612;28;20120;-60
2024/01/01 06:07:35;;;;;;;7.93;2.30;;;;;7.40;97605.00;;;;5031718;28;20045;-62
2024/01/01 06:10:03;;;;;;;11.52;2.50;;;;;7.50;97606.00;;;;5033867;28;20044;-61
2024/01/01 06:12:29;;;;;;;17.58;3.17;;;;;7.50;97619.00;;;;5033330;28;20129;-61
2024/01/01 06:14:56;;;;;;;8.20;2.60;;;;;7.50;97616.00;;;;5032604;28;20498;-61
2024/01/01 06:17:22;;;;;;;14.60;2.25;;;;;7.50;97621.00;;;;5033203;28;20045;-61
2024/01/01 06:19:50;;;;;;;13.27;2.17;;;;;7.50;97625.00;;;;5033020;28;20037;-61
2024/01/01 06:22:17;;;;;;;11.20;2.63;;;;;7.50;97624.00;;;;5032871;28;20087;-63
2024/01/01 06:24:44;;;;;;;6.40;1.98;;;;;7.50;97615.00;;;;5032396;28;20145;-64
2024/01/01 06:27:10;;;;;;;9.38;2.17;;;;;7.50;97615.00;;;;5032863;28;20046;-64
2024/01/01 06:29:37;;;;;;;15.20;2.92;;;;;7.60;97620.00;;;;5032550;28;20087;-63
2024/01/01 06:32:04;;;;;;;15.32;2.50;;;;;7.60;97632.00;;;;5035366;28;20055;-64
2024/01/01 06:34:31;;;;;;;11.68;2.28;;;;;7.60;97616.00;;;;5034882;28;20057;-64
2024/01/01 06:36:57;;;;;;;11.15;3.67;;;;;7.60;97634.00;;;;5034590;28;20073;-64
2024/01/01 06:39:24;;;;;;;13.90;2.60;;;;;7.60;97641.00;;;;5032506;28;20128;-63
2024/01/01 06:41:50;;;;;;;12.63;3.03;;;;;7.60;97633.00;;;;5031624;28;20132;-64
2024/01/01 06:44:17;;;;;;;12.68;2.72;;;;;7.60;97642.00;;;;5032566;28;20427;-64
2024/01/01 06:46:43;;;;;;;14.45;3.03;;;;;7.50;97637.00;;;;5032662;28;20128;-64
2024/01/01 06:49:10;;;;;;;17.73;3.45;;;;;7.50;97645.00;;;;5032334;28;20049;-64
2024/01/01 06:51:37;;;;;;;9.10;2.03;;;;;7.50;97653.00;;;;5032482;28;20088;-64
2024/01/01 06:54:03;;;;;;;9.77;2.55;;;;;7.50;97642.00;;;;5031865;28;20461;-64
2024/01/01 06:56:30;;;;;;;11.13;2.20;;;;;7.50;97644.00;;;;5032484;28;20060;-64
2024/01/01 06:58:57;;;;;;;14.80;2.47;;;;;7.50;97643.00;;;;5032287;28;20128;-64
2024/01/01 07:01:23;;;;;;;14.00;2.90;;;;;7.50;97658.00;;;;5031257;28;20119;-64
2024/01/01 07:03:50;;;;;;;17.83;2.65;;;;;7.60;97654.00;;;;5031791;28;20060;-64
2024/01/01 07:06:17;;;;;;;13.52;2.75;;;;;7.60;97659.00;;;;5032281;28;20045;-64
2024/01/01 07:08:44;;;;;;;15.00;2.95;;;;;7.60;97664.00;;;;5032067;28;20124;-65
2024/01/01 07:11:11;;;;;;;12.15;2.50;;;;;7.60;97668.00;;;;5032158;28;20095;-62
2024/01/01 07:13:37;;;;;;;15.85;2.45;;;;;7.60;97672.00;;;;5031580;28;20057;-64
2024/01/01 07:16:04;;;;;;;12.15;2.10;;;;;7.60;97680.00;;;;5032615;28;20037;-64
2024/01/01 07:18:30;;;;;;;9.25;2.00;;;;;7.60;97680.00;;;;5030702;28;20053;-65
2024/01/01 07:20:58;;;;;;;13.15;2.60;;;;;7.60;97677.00;;;;5031975;28;20037;-64
2024/01/01 07:23:24;;;;;;;21.75;3.00;;;;;7.60;97674.00;;;;5031476;28;20072;-64
2024/01/01 07:25:51;;;;;;;11.95;2.78;;;;;7.60;97670.00;;;;5032146;28;20450;-64
2024/01/01 07:28:18;;;;;;;12.23;3.10;;;;;7.60;97668.00;;;;5032266;28;20041;-64
2024/01/01 07:30:45;;;;;;;17.13;2.95;;;;;7.70;97680.00;;;;5032141;28;20052;-64
2024/01/01 07:33:11;;;;;;;13.20;2.70;;;;;7.60;97675.00;;;;5030963;28;20124;-64
2024/01/01 07:35:38;;;;;;;11.13;2.58;;;;;7.70;97679.00;;;;5031733;28;20053;-64
2024/01/01 07:38:05;;;;;;;11.20;2.53;;;;;7.70;97692.00;;;;5032299;28;20093;-64
2024/01/01 07:40:32;;;;;;;12.98;2.63;;;;;7.70;97700.00;;;;5035427;28;20103;-64
2024/01/01 07:42:59;;;;;;;13.27;2.45;;;;;7.80;97692.00;;;;5036404;28;20045;-64
2024/01/01 07:45:25;;;;;;;11.48;2.22;;;;;7.70;97695.00;;;;5034601;28;20048;-64
2024/01/01 07:47:52;;;;;;;11.00;2.50;;;;;7.60;97693.00;;;;5035953;28;20118;-64
2024/01/01 07:50:19;;;;;;;15.77;4.50;;;;;7.70;97688.00;;;;5036254;28;20040;-64
2024/01/01 07:52:48;;;;;;;11.68;2.25;;;;;7.70;97698.00;;;;5035948;28;20452;-64
2024/01/01 07:55:14;;;;;;;15.02;2.65;;;;;7.80;97699.00;;;;5035325;28;20073;-64
2024/01/01 07:57:41;;;;;;;16.42;2.47;;;;;7.80;97701.00;;;;5035492;28;20041;-64
2024/01/01 08:00:09;;;;;;;11.07;2.53;;;;;7.70;97711.00;;;;5036205;28;20486;-65
2024/01/01 08:02:36;;;;;;;11.30;2.97;;;;;7.70;97704.00;;;;5035521;28;20061;-64
2024/01/01 08:05:04;;;;;;;11.15;2.42;;;;;7.70;97726.00;;;;5034181;28;20045;-64
2024/01/01 08:07:31;;;;;;;13.18;2.45;;;;;7.70;97715.00;;;;5035764;28;20054;-64
2024/01/01 08:09:57;;;;;;;10.32;2.45;;;;;7.80;97724.00;;;;5036226;28;20116;-64
2024/01/01 08:12:24;;;;;;;11.70;2.35;;;;;7.80;97732.00;;;;5036525;28;20406;-64
2024/01/01 08:14:51;;;;;;;12.45;2.55;;;;;7.80;97727.00;;;;5038554;28;20049;-64
2024/01/01 08:17:17;;;;;;;10.50;3.10;;;;;7.90;97718.00;;;;5039459;28;20068;-63
2024/01/01 08:19:44;;;;;;;12.63;2.08;;;;;7.90;97728.00;;;;5036579;28;20042;-64
2024/01/01 08:22:11;;;;;;;7.80;2.17;;;;;7.90;97730.00;;;;5035652;28;20584;-64
2024/01/01 08:24:37;;;;;;;8.23;2.13;;;;;7.90;97742.00;;;;5035062;28;20457;-64
2024/01/01 08:27:06;;;;;;;16.00;3.22;;;;;7.90;97734.00;;;;5035396;28;20045;-64
2024/01/01 08:29:33;;;;;;;11.75;2.33;;;;;7.90;97739.00;;;;5035204;28;20048;-64
2024/01/01 08:32:02;;;;;;;10.30;2.50;;;;;7.90;97729.00;;;;5035379;28;20135;-64
2024/01/01 08:34:31;;;;;;;14.77;2.67;;;;;7.90;97737.00;;;;5034680;28;20052;-64
2024/01/01 08:37:01;;;;;;;9.77;1.85;;;;;8.00;97734.00;;;;5035181;28;20136;-64
2024/01/01 08:39:28;;;;;;;10.85;2.25;;;;;8.10;97738.00;;;;5035017;28;20052;-64
2024/01/01 08:41:55;;;;;;;10.50;2.47;;;;;8.10;97746.00;;;;5033771;28;20087;-65
2024/01/01 08:44:21;;;;;;;10.63;3.00;;;;;8.20;97742.00;;;;5034696;28;20467;-64
2024/01/01 08:46:48;;;;;;;12.50;2.50;;;;;8.10;97746.00;;;;5034807;28;20045;-64
2024/01/01 08:49:15;;;;;;;12.68;2.80;;;;;8.10;97747.00;;;;5034802;28;20445;-64
2024/01/01 08:51:41;;;;;;;13.05;2.65;;;;;8.10;97756.00;;;;5034228;28;20050;-65
2024/01/01 08:54:08;;;;;;;13.77;2.28;;;;;8.10;97755.00;;;;5034148;28;20045;-64
2024/01/01 08:56:35;;;;;;;22.48;3.95;;;;;8.10;97758.00;;;;5033452;28;20049;-65
2024/01/01 08:59:01;;;;;;;11.32;2.08;;;;;8.00;97767.00;;;;5033375;28;20081;-64
2024/01/01 09:01:28;;;;;;;7.93;2.17;;;;;8.00;97772.00;;;;5034612;28;20041;-65
2024/01/01 09:03:56;;;;;;;12.98;2.53;;;;;7.90;97786.00;;;;5034066;28;20414;-64
2024/01/01 09:06:23;;;;;;;12.32;2.17;;;;;7.90;97769.00;;;;5034581;28;20051;-65
2024/01/01 09:08:50;;;;;;;13.00;2.85;;;;;7.90;97785.00;;;;5034420;28;20057;-65
2024/01/01 09:11:16;;;;;;;8.80;2.17;;;;;7.90;97787.00;;;;5034276;28;20072;-64
2024/01/01 09:13:43;;;;;;;12.48;2.40;;;;;7.90;97791.00;;;;5033779;28;20553;-65
2024/01/01 09:16:10;;;;;;;6.15;1.75;;;;;7.90;97807.00;;;;5034393;28;20442;-65
2024/01/01 09:18:37;;;;;;;9.68;2.40;;;;;8.00;97805.00;;;;5034069;28;20049;-65
2024/01/01 09:21:04;;;;;;;11.82;2.58;;;;;8.00;97823.00;;;;5034278;28;20136;-65
2024/01/01 09:23:31;;;;;;;8.82;2.03;;;;;8.00;97809.00;;;;5034010;28;20080;-64
2024/01/01 09:25:58;;;;;;;9.38;2.35;;;;;8.10;97799.00;;;;5034118;28;20045;-65
2024/01/01 09:28:25;;;;;;;12.43;2.70;;;;;8.10;97798.00;;;;5034142;28;20113;-65
2024/01/01 09:30:53;;;;;;;10.57;2.22;;;;;8.10;97798.00;;;;5034428;28;20132;-65
2024/01/01 09:33:21;;;;;;;5.85;1.65;;;;;8.20;97805.00;;;;5034059;28;20565;-64
2024/01/01 09:35:48;;;;;;;10.38;2.50;;;;;8.20;97801.00;;;;5032881;28;20045;-64
2024/01/01 09:38:14;;;;;;;9.25;2.08;;;;;8.30;97809.00;;;;5033954;28;20417;-65
2024/01/01 09:40:43;;;;;;;9.13;3.00;;;;;8.30;97808.00;;;;5033859;28;20041;-64
2024/01/01 09:43:17;;;;;;;7.13;2.05;;;;;8.40;97809.00;;;;5032818;28;20092;-64
2024/01/01 09:45:48;;;;;;;11.25;2.58;;;;;8.50;97814.00;;;;5033512;28;20494;-63
2024/01/01 09:48:15;;;;;;;11.88;2.75;;;;;8.50;97833.00;;;;5033611;28;20124;-63
2024/01/01 09:50:48;;;;;;;13.00;3.40;;;;;8.50;97828.00;;;;5033601;28;20056;-64
2024/01/01 09:53:17;;;;;;;10.63;2.70;;;;;8.50;97833.00;;;;5032743;28;20414;-64
2024/01/01 09:55:51;;;;;;;9.05;2.20;;;;;8.50;97828.00;;;;5033014;28;20223;-61
2024/01/01 09:58:18;;;;;;;13.18;3.28;;;;;8.50;97816.00;;;;5033482;28;20509;-61
2024/01/01 10:00:45;;;;;;;13.88;3.33;;;;;8.60;97825.00;;;;5033770;28;20379;-61
2024/01/01 10:03:11;;;;;;;8.50;2.58;;;;;8.60;97823.00;;;;5032558;28;20471;-61
2024/01/01 10:05:39;;;;;;;12.38;2.92;;;;;8.70;97823.00;;;;5033450;28;20092;-62
2024/01/01 10:08:13;;;;;;;12.00;3.10;;;;;8.70;97832.00;;;;5034148;28;20076;-61
2024/01/01 10:10:42;;;;;;;6.15;2.75;;;;;8.60;97827.00;;;;5033675;28;20117;-63
2024/01/01 10:13:11;;;;;;;11.07;3.13;;;;;8.60;97830.00;;;;5033320;28;20494;-62
2024/01/01 10:15:39;;;;;;;11.95;3.38;;;;;8.60;97831.00;;;;5032640;28;20384;-62
2024/01/01 10:18:10;;;;;;;9.75;2.97;;;;;8.50;97843.00;;;;5033220;28;20469;-62
2024/01/01 10:20:38;;;;;;;12.13;2.97;;;;;8.50;97834.00;;;;5032915;28;20411;-61
2024/01/01 10:23:20;;;;;;;14.10;2.70;;;;;8.40;97831.00;;;;5033107;28;20068;-63
2024/01/01 10:26:04;;;;;;;12.90;3.05;;;;;8.40;97833.00;;;;5089833;27;20947;-62
2024/01/01 10:28:32;;;;;;;11.80;2.58;;;;;8.30;97841.00;;;;5089789;28;20384;-62
2024/01/01 10:31:00;;;;;;;14.73;2.95;;;;;8.30;97841.00;;;;5088645;28;20432;-62
2024/01/01 10:33:29;;;;;;;11.18;2.70;;;;;8.40;97838.00;;;;5089672;28;20058;-62
2024/01/01 10:35:58;;;;;;;8.88;3.10;;;;;8.40;97841.00;;;;5089940;28;20039;-64
2024/01/01 10:38:27;;;;;;;11.60;3.25;;;;;8.40;97855.00;;;;5089731;28;20404;-62
2024/01/01 10:40:56;;;;;;;15.05;2.97;;;;;8.60;97849.00;;;;5089493;28;20044;-63
2024/01/01 10:43:25;;;;;;;12.68;2.80;;;;;8.70;97828.00;;;;5087950;28;20076;-63
2024/01/01 10:45:57;;;;;;;20.17;3.92;;;;;8.90;97833.00;;;;5089211;28;20048;-65
2024/01/01 10:48:24;;;;;;;11.73;3.65;;;;;9.00;97827.00;;;;5087761;28;20094;-62
2024/01/01 10:51:11;;;;;;;9.07;3.33;;;;;9.10;97822.00;;;;5089195;28;20055;-64
2024/01/01 10:53:56;;;;;;;11.38;3.05;;;;;9.20;97832.00;;;;5088558;28;20075;-65
2024/01/01 10:56:41;;;;;;;10.98;3.15;;;;;9.10;97832.00;;;;5089438;28;20124;-65
2024/01/01 10:59:20;;;;;;;11.40;3.20;;;;;9.00;97832.00;;;;5089236;28;20501;-63
2024/01/01 11:01:50;;;;;;;10.63;2.50;;;;;9.00;97832.00;;;;5089310;28;20048;-64
2024/01/01 11:04:21;;;;;;;11.20;3.00;;;;;8.90;97836.00;;;;5087130;28;20480;-65
2024/01/01 11:06:48;;;;;;;11.68;3.00;;;;;8.80;97834.00;;;;5088879;28;20417;-64
2024/01/01 11:09:20;;;;;;;13.02;2.65;;;;;8.70;97829.00;;;;5089239;28;20131;-65
2024/01/01 11:11:52;;;;;;;10.27;3.00;;;;;8.50;97838.00;;;;5089070;28;20109;-64
2024/01/01 11:14:34;;;;;;;13.55;2.80;;;;;8.50;97841.00;;;;5088361;28;20036;-65
2024/01/01 11:17:04;;;;;;;12.18;2.92;;;;;8.40;97838.00;;;;5088770;28;20055;-65
2024/01/01 11:19:39;;;;;;;16.27;3.00;;;;;8.30;97845.00;;;;5087711;28;20135;-64
2024/01/01 11:22:18;;;;;;;13.93;3.17;;;;;8.30;97844.00;;;;5087578;28;20071;-65
2024/01/01 11:24:47;;;;;;;13.07;3.03;;;;;8.20;97842.00;;;;5087764;28;20040;-64
2024/01/01 11:27:25;;;;;;;17.83;3.35;;;;;8.30;97844.00;;;;5087423;28;20074;-65
2024/01/01 11:29:52;;;;;;;11.52;3.17;;;;;8.50;97850.00;;;;5088733;28;20036;-64
2024/01/01 11:32:19;;;;;;;17.35;2.75;;;;;8.60;97840.00;;;;5086997;28;20090;-65
2024/01/01 11:35:25;;;;;;;11.02;2.67;;;;;8.70;97855.00;;;;5087762;28;20048;-65
2024/01/01 11:37:57;;;;;;;16.88;3.63;;;;;8.70;97851.00;;;;5074954;28;20048;-65
2024/01/01 11:40:28;;;;;;;12.48;3.03;;;;;8.80;97848.00;;;;5073726;28;20043;-64
2024/01/01 11:43:05;;;;;;;11.70;3.40;;;;;9.00;97841.00;;;;5074952;28;20091;-64
2024/01/01 11:45:32;;;;;;;14.95;3.25;;;;;9.20;97845.00;;;;5073939;28;20048;-65
2024/01/01 11:48:05;;;;;;;13.40;3.15;;;;;9.40;97844.00;;;;5073369;28;20044;-63
2024/01/01 11:50:32;;;;;;;19.88;3.67;;;;;9.50;97843.00;;;;5074950;28;20041;-65
2024/01/01 11:53:00;;;;;;;14.85;2.78;;;;;9.50;97858.00;;;;5074815;28;20048;-66
2024/01/01 11:55:27;;;;;;;9.43;2.60;;;;;9.50;97843.00;;;;5073376;28;20032;-64
2024/01/01 11:57:54;;;;;;;16.08;2.55;;;;;9.40;97844.00;;;;5074479;28;20481;-64
2024/01/01 12:00:21;;;;;;;13.63;3.83;;;;;9.40;97851.00;;;;5074948;28;20119;-63
2024/01/01 12:02:48;;;;;;;14.70;2.80;;;;;9.50;97850.00;;;;5074558;28;20045;-64
2024/01/01 12:05:19;;;;;;;9.50;2.60;;;;;9.50;97862.00;;;;5072821;28;20412;-64
2024/01/01 12:07:46;;;;;;;11.88;2.55;;;;;9.50;97844.00;;;;5074394;28;20049;-63
2024/01/01 12:10:17;;;;;;;11.30;2.47;;;;;9.40;97847.00;;;;5074158;28;20040;-65
2024/01/01 12:12:44;;;;;;;15.25;3.55;;;;;9.40;97846.00;;;;5074296;28;20401;-64
2024/01/01 12:15:12;;;;;;;18.42;3.33;;;;;9.50;97840.00;;;;5073633;28;20493;-64
2024/01/01 12:17:43;;;;;;;9.45;2.85;;;;;9.70;97840.00;;;;5072882;28;20044;-63
2024/01/01 12:20:17;;;;;;;14.25;2.85;;;;;9.80;97842.00;;;;5074125;28;20044;-64
2024/01/01 12:22:44;;;;;;;14.93;3.35;;;;;9.90;97834.00;;;;5074266;28;20124;-64
2024/01/01 12:25:15;;;;;;;18.17;3.05;;;;;9.90;97841.00;;;;5073595;28;20060;-64